Time;durP1;ratioP1;P1;durP2;ratioP2;P2;SDS_P1;SDS_P2;PMS_P1;PMS_P2;Temp;Humidity;BMP_temperature;BMP_pressure;BME280_temperature;BME280_humidity;BME280_pressure;Samples;Min_cycle;Max_cycle;Signal;HPM_P1;HPM_P2
2021/12/23 00:00:57;;;;;;;28.00;16.47;;;-1.10;99.90;;;;;;4909322;29;20445;-79
2021/12/23 00:03:23;;;;;;;27.37;17.10;;;-1.00;99.90;;;;;;4921644;29;20296;-80
2021/12/23 00:05:49;;;;;;;27.03;16.43;;;-1.00;99.90;;;;;;4888405;29;20375;-80
2021/12/23 00:08:15;;;;;;;26.53;16.77;;;-1.10;99.90;;;;;;4891995;29;20668;-80
2021/12/23 00:10:41;;;;;;;24.73;17.43;;;-1.00;99.90;;;;;;4914056;29;20310;-80
2021/12/23 00:13:07;;;;;;;26.73;16.87;;;-1.00;99.90;;;;;;4891414;29;20515;-80
2021/12/23 00:16:00;;;;;;;29.40;17.70;;;-1.00;99.90;;;;;;4895010;29;20048;-80
2021/12/23 00:23:47;;;;;;;30.63;17.70;;;-0.90;99.90;;;;;;4938530;29;20386;-79
2021/12/23 00:26:13;;;;;;;26.97;17.37;;;-0.90;99.90;;;;;;4926216;29;20794;-78
2021/12/23 00:28:39;;;;;;;26.87;17.27;;;-0.90;99.90;;;;;;4943292;29;20127;-78
2021/12/23 00:31:06;;;;;;;27.43;17.50;;;-0.90;99.90;;;;;;4924980;29;20036;-79
2021/12/23 00:33:34;;;;;;;25.60;16.63;;;-1.00;99.90;;;;;;4944450;29;20044;-79
2021/12/23 00:36:00;;;;;;;29.13;16.63;;;-0.90;99.90;;;;;;4932371;29;20275;-80
2021/12/23 00:38:30;;;;;;;29.27;17.30;;;-0.90;99.90;;;;;;4940078;29;20860;-80
2021/12/23 00:40:58;;;;;;;29.90;17.63;;;-0.90;99.90;;;;;;4940129;29;20126;-79
2021/12/23 00:43:24;;;;;;;33.20;17.13;;;-0.90;99.90;;;;;;4926241;29;20291;-80
2021/12/23 00:45:50;;;;;;;33.23;17.67;;;-0.90;99.90;;;;;;4940072;29;20356;-80
2021/12/23 00:48:16;;;;;;;29.40;17.43;;;-1.00;99.90;;;;;;4909381;29;20398;-79
2021/12/23 00:50:43;;;;;;;28.50;18.00;;;-0.70;99.90;;;;;;4912472;29;20287;-79
2021/12/23 00:53:10;;;;;;;29.23;17.60;;;-0.80;99.90;;;;;;4926095;29;20378;-79
2021/12/23 00:55:37;;;;;;;28.10;17.73;;;-0.80;99.90;;;;;;4941691;29;20267;-79
2021/12/23 00:58:03;;;;;;;29.97;18.27;;;-0.80;99.90;;;;;;4925062;29;20312;-79
2021/12/23 01:00:30;;;;;;;28.17;17.77;;;-0.80;99.90;;;;;;4919943;29;20350;-79
2021/12/23 01:02:58;;;;;;;26.17;17.23;;;-0.70;99.90;;;;;;4931682;29;20293;-79
2021/12/23 01:05:25;;;;;;;31.27;18.43;;;-0.70;99.90;;;;;;4916844;29;20291;-79
2021/12/23 01:07:50;;;;;;;30.97;18.33;;;-0.70;99.90;;;;;;4924993;29;20303;-79
2021/12/23 01:10:17;;;;;;;33.47;18.20;;;-0.80;99.90;;;;;;4910280;29;21000;-79
2021/12/23 01:12:47;;;;;;;33.23;18.33;;;-0.70;99.90;;;;;;4930574;29;20487;-79
2021/12/23 01:17:55;;;;;;;30.90;18.20;;;-0.70;99.90;;;;;;4937498;29;20296;-80
2021/12/23 01:20:29;;;;;;;29.70;18.07;;;-0.70;99.90;;;;;;4923092;29;20644;-80
2021/12/23 01:23:07;;;;;;;32.83;17.93;;;-0.70;99.90;;;;;;4923414;29;20304;-80
2021/12/23 01:25:35;;;;;;;30.67;17.20;;;-0.60;99.90;;;;;;4917675;29;20292;-80
2021/12/23 01:28:01;;;;;;;28.27;17.40;;;-0.70;99.90;;;;;;4910008;29;20314;-80
2021/12/23 01:30:27;;;;;;;28.70;17.70;;;-0.70;99.90;;;;;;4914190;29;20283;-80
2021/12/23 01:32:55;;;;;;;29.60;18.17;;;-0.70;99.90;;;;;;4900610;29;20699;-80
2021/12/23 01:35:21;;;;;;;31.97;17.73;;;-0.70;99.90;;;;;;4914635;29;20290;-80
2021/12/23 01:37:47;;;;;;;32.53;18.43;;;-0.70;99.90;;;;;;4912787;29;20295;-80
2021/12/23 01:40:16;;;;;;;33.97;17.57;;;-0.70;99.90;;;;;;4909379;29;20459;-80
2021/12/23 01:42:42;;;;;;;33.30;17.83;;;-0.70;99.90;;;;;;4912800;29;20809;-80
2021/12/23 01:45:19;;;;;;;29.23;18.13;;;-0.70;99.90;;;;;;4909449;29;20318;-79
2021/12/23 01:47:46;;;;;;;28.37;17.50;;;-0.70;99.90;;;;;;4908763;29;20040;-80
2021/12/23 01:50:14;;;;;;;35.67;19.03;;;-0.60;99.90;;;;;;4926475;29;20278;-80
2021/12/23 01:52:40;;;;;;;27.93;17.13;;;-0.60;99.90;;;;;;4906278;29;20302;-80
2021/12/23 01:55:08;;;;;;;32.20;17.60;;;-0.60;99.90;;;;;;4911251;29;20287;-80
2021/12/23 01:57:34;;;;;;;29.73;17.37;;;-0.60;99.90;;;;;;4908959;29;20296;-80
2021/12/23 02:00:04;;;;;;;30.80;17.87;;;-0.60;99.90;;;;;;4928205;29;20326;-80
2021/12/23 02:02:31;;;;;;;28.53;16.90;;;-0.60;99.90;;;;;;4923479;29;20294;-79
2021/12/23 02:04:57;;;;;;;26.80;17.37;;;-0.70;99.90;;;;;;4917380;29;20373;-80
2021/12/23 02:07:22;;;;;;;31.20;18.23;;;-0.60;99.90;;;;;;4891454;29;20394;-79
2021/12/23 02:09:48;;;;;;;29.57;18.30;;;-0.60;99.90;;;;;;4914954;29;20083;-79
2021/12/23 02:12:16;;;;;;;30.57;17.37;;;-0.60;99.90;;;;;;4927541;29;20039;-79
2021/12/23 02:14:41;;;;;;;30.67;18.27;;;-0.60;99.90;;;;;;4909839;29;20078;-79
2021/12/23 02:17:07;;;;;;;31.37;18.47;;;-0.60;99.90;;;;;;4910992;29;20324;-78
2021/12/23 02:19:33;;;;;;;28.23;16.97;;;-0.60;99.90;;;;;;4924840;29;20051;-79
2021/12/23 02:21:59;;;;;;;30.87;17.27;;;-0.60;99.90;;;;;;4917518;29;20378;-79
2021/12/23 02:24:25;;;;;;;28.13;16.80;;;-0.60;99.90;;;;;;4910138;29;20045;-79
2021/12/23 02:26:51;;;;;;;30.57;17.20;;;-0.60;99.90;;;;;;4902249;29;20311;-79
2021/12/23 02:29:17;;;;;;;29.67;17.50;;;-0.60;99.90;;;;;;4920010;29;20338;-79
2021/12/23 02:31:51;;;;;;;31.53;17.63;;;-0.60;99.90;;;;;;4916133;29;20690;-79
2021/12/23 02:34:17;;;;;;;27.70;16.93;;;-0.60;99.90;;;;;;4903956;29;20043;-80
2021/12/23 02:36:49;;;;;;;27.23;17.23;;;-0.60;99.90;;;;;;4925136;29;20342;-80
2021/12/23 02:39:15;;;;;;;29.55;17.52;;;-0.60;99.90;;;;;;4940373;29;20874;-79
2021/12/23 02:41:42;;;;;;;30.30;17.47;;;-0.60;99.90;;;;;;4912254;29;20043;-78
2021/12/23 02:44:08;;;;;;;27.60;17.10;;;-0.60;99.90;;;;;;4923835;29;20048;-79
2021/12/23 02:46:35;;;;;;;26.53;16.33;;;-0.60;99.90;;;;;;4909043;29;20334;-80
2021/12/23 02:49:01;;;;;;;26.77;16.77;;;-0.60;99.90;;;;;;4883203;29;20071;-79
2021/12/23 02:51:27;;;;;;;29.40;17.90;;;-0.50;99.90;;;;;;4929966;29;20282;-79
2021/12/23 02:53:53;;;;;;;28.60;16.63;;;-0.50;99.90;;;;;;4912167;29;20315;-79
2021/12/23 02:56:18;;;;;;;30.03;17.30;;;-0.50;99.90;;;;;;4908116;29;20395;-80
2021/12/23 02:58:45;;;;;;;31.80;16.83;;;-0.50;99.90;;;;;;4908370;29;20099;-79
2021/12/23 03:01:12;;;;;;;28.70;16.50;;;-0.50;99.90;;;;;;4931289;29;20044;-79
2021/12/23 03:03:39;;;;;;;27.60;16.27;;;-0.40;99.90;;;;;;4914708;29;20338;-80
2021/12/23 03:06:05;;;;;;;27.60;15.73;;;-0.40;99.90;;;;;;4910361;29;20284;-77
2021/12/23 03:08:33;;;;;;;27.83;17.67;;;-0.40;99.90;;;;;;4907135;29;20817;-79
2021/12/23 03:10:59;;;;;;;25.40;16.57;;;-0.40;99.90;;;;;;4911158;29;20147;-79
2021/12/23 03:13:25;;;;;;;32.33;16.87;;;-0.40;99.90;;;;;;4935619;29;20314;-79
2021/12/23 03:15:51;;;;;;;28.37;16.90;;;-0.30;99.90;;;;;;4908708;29;20671;-79
2021/12/23 03:18:17;;;;;;;29.10;16.97;;;-0.40;99.90;;;;;;4919770;29;20824;-80
2021/12/23 03:20:43;;;;;;;29.53;16.90;;;-0.40;99.90;;;;;;4930790;29;20326;-79
2021/12/23 03:23:09;;;;;;;29.30;17.00;;;-0.40;99.90;;;;;;4909683;29;20051;-79
2021/12/23 03:25:35;;;;;;;27.93;16.87;;;-0.40;99.90;;;;;;4922261;29;20053;-79
2021/12/23 03:28:01;;;;;;;26.13;16.97;;;-0.40;99.90;;;;;;4906473;29;21218;-79
2021/12/23 03:30:26;;;;;;;27.30;16.57;;;-0.40;99.90;;;;;;4891382;29;20043;-79
2021/12/23 03:32:52;;;;;;;28.13;16.97;;;-0.40;99.90;;;;;;4896692;29;20527;-79
2021/12/23 03:35:18;;;;;;;28.47;15.77;;;-0.50;99.90;;;;;;4909690;29;20062;-79
2021/12/23 03:37:45;;;;;;;27.80;16.23;;;-0.40;99.90;;;;;;4888449;29;20098;-79
2021/12/23 03:40:11;;;;;;;28.20;16.50;;;-0.50;99.90;;;;;;4912685;29;20044;-80
2021/12/23 03:42:37;;;;;;;28.93;16.63;;;-0.40;99.90;;;;;;4939047;29;20287;-79
2021/12/23 03:45:05;;;;;;;27.97;16.03;;;-0.40;99.90;;;;;;4906574;29;20812;-79
2021/12/23 03:47:31;;;;;;;29.63;17.40;;;-0.40;99.90;;;;;;4890529;29;20308;-79
2021/12/23 03:49:56;;;;;;;26.97;17.00;;;-0.40;99.90;;;;;;4907934;29;20288;-79
2021/12/23 03:52:22;;;;;;;27.63;17.10;;;-0.40;99.90;;;;;;4907695;29;20040;-79
2021/12/23 03:54:48;;;;;;;24.57;15.43;;;-0.40;99.90;;;;;;4920513;29;20067;-79
2021/12/23 03:57:14;;;;;;;29.30;16.97;;;-0.40;99.90;;;;;;4889305;29;20040;-79
2021/12/23 03:59:39;;;;;;;29.03;16.83;;;-0.40;99.90;;;;;;4905978;29;20050;-79
2021/12/23 04:02:05;;;;;;;26.70;16.10;;;-0.40;99.90;;;;;;4891337;29;20043;-79
2021/12/23 04:04:31;;;;;;;27.23;16.80;;;-0.40;99.90;;;;;;4929481;29;20126;-79
2021/12/23 04:06:57;;;;;;;25.80;16.50;;;-0.30;99.90;;;;;;4892563;29;20351;-79
2021/12/23 04:09:23;;;;;;;27.27;16.57;;;-0.30;99.90;;;;;;4909396;29;20074;-79
2021/12/23 04:11:49;;;;;;;28.40;16.90;;;-0.30;99.90;;;;;;4907680;29;20040;-79
2021/12/23 04:14:14;;;;;;;30.67;17.83;;;-0.30;99.90;;;;;;4937343;29;20088;-79
2021/12/23 04:16:40;;;;;;;28.40;17.37;;;-0.30;99.90;;;;;;4908574;29;20119;-79
2021/12/23 04:19:09;;;;;;;29.63;16.63;;;-0.30;99.90;;;;;;4906643;29;20044;-79
2021/12/23 04:21:35;;;;;;;31.70;17.60;;;-0.30;99.90;;;;;;4917033;29;20118;-79
2021/12/23 04:24:02;;;;;;;28.00;17.00;;;-0.30;99.90;;;;;;4889658;29;20279;-79
2021/12/23 04:26:28;;;;;;;29.40;16.37;;;-0.30;99.90;;;;;;4926780;29;20283;-79
2021/12/23 04:28:53;;;;;;;30.37;16.53;;;-0.30;99.90;;;;;;4892987;29;20358;-79
2021/12/23 04:31:21;;;;;;;34.40;17.77;;;-0.30;99.90;;;;;;4907341;29;20131;-79
2021/12/23 04:33:49;;;;;;;29.13;16.50;;;-0.30;99.90;;;;;;4911189;29;20091;-79
2021/12/23 04:36:16;;;;;;;28.80;17.13;;;-0.30;99.90;;;;;;4924664;29;20284;-79
2021/12/23 04:38:43;;;;;;;30.77;16.63;;;-0.20;99.90;;;;;;4911254;29;20296;-79
2021/12/23 04:41:10;;;;;;;27.50;16.23;;;-0.20;99.90;;;;;;4906772;29;20292;-79
2021/12/23 04:43:36;;;;;;;30.17;16.90;;;-0.20;99.90;;;;;;4912683;29;20328;-79
2021/12/23 04:46:02;;;;;;;29.10;16.87;;;-0.20;99.90;;;;;;4906483;29;20406;-79
2021/12/23 04:48:28;;;;;;;29.33;16.90;;;-0.20;99.90;;;;;;4910026;29;20050;-79
2021/12/23 04:50:54;;;;;;;29.90;17.30;;;-0.10;99.90;;;;;;4887905;29;20295;-79
2021/12/23 04:53:20;;;;;;;30.27;16.93;;;-0.10;99.90;;;;;;4890951;29;20284;-79
2021/12/23 04:55:46;;;;;;;27.23;16.50;;;-0.10;99.90;;;;;;4929953;29;20039;-79
2021/12/23 04:58:12;;;;;;;29.57;17.83;;;-0.10;99.90;;;;;;4940507;29;20131;-79
2021/12/23 05:00:38;;;;;;;31.77;17.40;;;-0.10;99.90;;;;;;4911243;29;20390;-79
2021/12/23 05:03:03;;;;;;;30.70;16.73;;;-0.10;99.90;;;;;;4924447;29;20039;-80
2021/12/23 05:05:29;;;;;;;29.33;17.57;;;-0.10;99.90;;;;;;4891484;29;20035;-79
2021/12/23 05:07:56;;;;;;;31.80;16.83;;;-0.10;99.90;;;;;;4902176;29;20044;-79
2021/12/23 05:10:25;;;;;;;28.40;17.00;;;-0.10;99.90;;;;;;4937809;29;20507;-79
2021/12/23 05:12:50;;;;;;;29.33;17.10;;;-0.10;99.90;;;;;;4905514;29;20659;-80
2021/12/23 05:15:18;;;;;;;26.80;16.27;;;0.00;99.90;;;;;;4898654;29;20288;-79
2021/12/23 05:17:44;;;;;;;31.07;16.60;;;-0.10;99.90;;;;;;4918970;29;20473;-79
2021/12/23 05:20:13;;;;;;;26.33;16.53;;;0.00;99.90;;;;;;4907958;29;20359;-79
2021/12/23 05:22:39;;;;;;;30.83;17.40;;;0.00;99.90;;;;;;4922697;29;20306;-79
2021/12/23 05:25:07;;;;;;;31.63;17.37;;;0.00;99.90;;;;;;4920655;29;20322;-79
2021/12/23 05:27:32;;;;;;;31.17;17.03;;;0.00;99.90;;;;;;4934473;29;20339;-79
2021/12/23 05:29:58;;;;;;;31.20;17.53;;;0.00;99.90;;;;;;4898559;29;20364;-79
2021/12/23 05:32:24;;;;;;;30.87;17.53;;;0.00;99.90;;;;;;4923723;29;20409;-79
2021/12/23 05:34:50;;;;;;;30.90;17.57;;;0.00;99.90;;;;;;4888116;29;20095;-79
2021/12/23 05:37:16;;;;;;;28.60;17.43;;;0.00;99.90;;;;;;4897332;29;20123;-79
2021/12/23 05:39:42;;;;;;;28.63;17.43;;;0.00;99.90;;;;;;4889786;29;20051;-80
2021/12/23 05:42:07;;;;;;;32.37;17.53;;;0.00;99.90;;;;;;4907740;29;20039;-78
2021/12/23 05:44:33;;;;;;;26.70;16.97;;;0.00;99.90;;;;;;4920891;29;20047;-77
2021/12/23 05:46:59;;;;;;;30.00;17.97;;;0.00;99.90;;;;;;4885818;29;20044;-79
2021/12/23 05:49:25;;;;;;;29.93;16.77;;;0.00;99.90;;;;;;4922589;29;20043;-79
2021/12/23 05:51:50;;;;;;;29.07;16.63;;;0.00;99.90;;;;;;4919448;29;20127;-79
2021/12/23 05:54:16;;;;;;;28.60;16.87;;;0.00;99.90;;;;;;4892941;29;20517;-79
2021/12/23 05:56:42;;;;;;;32.00;17.40;;;0.00;99.90;;;;;;4900025;29;20036;-79
2021/12/23 05:59:08;;;;;;;29.57;16.77;;;0.10;99.90;;;;;;4891090;29;20040;-79
2021/12/23 06:01:33;;;;;;;30.57;17.80;;;0.00;99.90;;;;;;4889557;29;20040;-79
2021/12/23 06:03:59;;;;;;;28.57;17.13;;;0.00;99.90;;;;;;4879205;29;20119;-79
2021/12/23 06:06:25;;;;;;;32.77;18.37;;;0.00;99.90;;;;;;4913332;29;20484;-79
2021/12/23 06:08:51;;;;;;;28.50;16.80;;;0.00;99.90;;;;;;4891738;29;20127;-79
2021/12/23 06:11:17;;;;;;;30.20;17.60;;;0.00;99.90;;;;;;4910401;29;20036;-79
2021/12/23 06:13:42;;;;;;;30.20;16.70;;;0.00;99.90;;;;;;4880806;29;20054;-80
2021/12/23 06:16:09;;;;;;;30.07;17.63;;;0.00;99.90;;;;;;4896913;29;20614;-79
2021/12/23 06:18:34;;;;;;;30.40;17.67;;;0.00;99.90;;;;;;4913420;29;20546;-79
2021/12/23 06:21:00;;;;;;;30.57;16.70;;;0.00;99.90;;;;;;4917067;29;20326;-79
2021/12/23 06:23:26;;;;;;;29.10;16.83;;;0.10;99.90;;;;;;4921247;29;20114;-81
2021/12/23 06:25:53;;;;;;;30.37;16.77;;;0.00;99.90;;;;;;4894810;29;20506;-80
2021/12/23 06:28:19;;;;;;;30.73;17.83;;;0.00;99.90;;;;;;4942527;29;20135;-80
2021/12/23 06:30:45;;;;;;;35.53;18.63;;;0.10;99.90;;;;;;4917438;29;20319;-80
2021/12/23 06:33:12;;;;;;;31.57;18.47;;;0.10;99.90;;;;;;4931553;29;20322;-80
2021/12/23 06:35:38;;;;;;;32.87;17.67;;;0.10;99.90;;;;;;4910777;29;20039;-80
2021/12/23 06:38:07;;;;;;;34.97;17.97;;;0.10;99.90;;;;;;4921199;29;20283;-80
2021/12/23 06:40:33;;;;;;;30.80;17.60;;;0.10;99.90;;;;;;4929059;29;20291;-80
2021/12/23 06:42:59;;;;;;;30.90;17.63;;;0.10;99.90;;;;;;4903665;29;20391;-80
2021/12/23 06:45:25;;;;;;;31.43;16.90;;;0.20;99.90;;;;;;4904350;29;20062;-80
2021/12/23 06:47:51;;;;;;;33.83;17.80;;;0.20;99.90;;;;;;4932566;29;20048;-80
2021/12/23 06:50:18;;;;;;;31.57;17.90;;;0.10;99.90;;;;;;4897689;29;20039;-80
2021/12/23 06:52:45;;;;;;;31.23;17.83;;;0.10;99.90;;;;;;4914545;29;20130;-79
2021/12/23 06:55:11;;;;;;;31.57;17.77;;;0.10;99.90;;;;;;4907590;29;20678;-80
2021/12/23 06:57:39;;;;;;;32.77;18.60;;;0.10;99.90;;;;;;4911345;29;20398;-80
2021/12/23 07:00:08;;;;;;;32.93;18.33;;;0.10;99.90;;;;;;4918107;29;20291;-80
2021/12/23 07:02:38;;;;;;;33.90;19.00;;;0.20;99.90;;;;;;4927952;29;20639;-79
2021/12/23 07:05:04;;;;;;;33.37;17.97;;;0.10;99.90;;;;;;4915935;29;20782;-79
2021/12/23 07:07:40;;;;;;;31.43;18.10;;;0.10;99.90;;;;;;4910121;29;20344;-79
2021/12/23 07:10:07;;;;;;;35.67;19.30;;;0.20;99.90;;;;;;4912788;29;20322;-80
2021/12/23 07:12:32;;;;;;;32.40;19.33;;;0.20;99.90;;;;;;4922718;29;20287;-80
2021/12/23 07:14:58;;;;;;;30.33;17.33;;;0.20;99.90;;;;;;4896737;29;20861;-80
2021/12/23 07:17:24;;;;;;;34.87;19.33;;;0.20;99.90;;;;;;4917975;29;20066;-80
2021/12/23 07:19:50;;;;;;;31.10;18.03;;;0.20;99.90;;;;;;4895026;29;20040;-79
2021/12/23 07:22:16;;;;;;;32.33;18.57;;;0.20;99.90;;;;;;4902712;29;20043;-80
2021/12/23 07:24:41;;;;;;;34.77;19.23;;;0.20;99.90;;;;;;4918444;29;20043;-79
2021/12/23 07:27:08;;;;;;;32.27;18.33;;;0.20;99.90;;;;;;4903380;29;20047;-81
2021/12/23 07:29:34;;;;;;;34.77;19.67;;;0.20;99.90;;;;;;4916096;29;20096;-79
2021/12/23 07:32:02;;;;;;;35.27;19.07;;;0.20;99.90;;;;;;4919389;29;20798;-79
2021/12/23 07:34:28;;;;;;;33.23;19.27;;;0.20;99.90;;;;;;4919036;29;20036;-78
2021/12/23 07:36:55;;;;;;;32.03;19.27;;;0.20;99.90;;;;;;4890355;29;20419;-79
2021/12/23 07:39:21;;;;;;;33.40;18.23;;;0.20;99.90;;;;;;4915989;29;20377;-79
2021/12/23 07:41:46;;;;;;;36.07;18.90;;;0.20;99.90;;;;;;4937584;29;20318;-80
2021/12/23 07:44:20;;;;;;;34.97;19.23;;;0.30;99.90;;;;;;4901827;29;20040;-79
2021/12/23 07:46:47;;;;;;;33.03;18.87;;;0.20;99.90;;;;;;4914163;29;20149;-79
2021/12/23 07:49:13;;;;;;;36.10;19.87;;;0.30;99.90;;;;;;4945074;29;20294;-79
2021/12/23 07:51:39;;;;;;;36.63;19.57;;;0.20;99.90;;;;;;4935361;29;20802;-79
2021/12/23 07:54:06;;;;;;;35.57;19.17;;;0.20;99.90;;;;;;4933954;29;20050;-79
2021/12/23 07:56:32;;;;;;;33.83;19.47;;;0.20;99.90;;;;;;4937131;29;20285;-79
2021/12/23 07:58:58;;;;;;;35.57;20.23;;;0.20;99.90;;;;;;4918078;29;20314;-79
2021/12/23 08:01:24;;;;;;;40.47;20.53;;;0.30;99.90;;;;;;4898143;29;20803;-80
2021/12/23 08:03:49;;;;;;;39.20;19.63;;;0.40;99.90;;;;;;4932862;29;20043;-80
2021/12/23 08:06:16;;;;;;;38.87;21.60;;;0.30;99.90;;;;;;4916740;29;20305;-80
2021/12/23 08:08:42;;;;;;;38.30;20.43;;;0.30;99.90;;;;;;4921877;29;20122;-80
2021/12/23 08:11:08;;;;;;;36.90;20.83;;;0.30;99.90;;;;;;4901402;29;20276;-78
2021/12/23 08:13:35;;;;;;;40.60;20.87;;;0.30;99.90;;;;;;4917782;29;20297;-78
2021/12/23 08:16:01;;;;;;;38.23;20.43;;;0.30;99.90;;;;;;4912583;29;20051;-78
2021/12/23 08:18:29;;;;;;;39.43;20.63;;;0.30;99.90;;;;;;4922994;29;20900;-78
2021/12/23 08:20:55;;;;;;;35.90;20.83;;;0.30;99.90;;;;;;4925342;29;20639;-78
2021/12/23 08:23:21;;;;;;;38.60;21.23;;;0.30;99.90;;;;;;4923456;29;22218;-78
2021/12/23 08:25:46;;;;;;;36.70;21.33;;;0.20;99.90;;;;;;4900647;29;20362;-78
2021/12/23 08:28:12;;;;;;;39.67;22.37;;;0.30;99.90;;;;;;4883659;29;20047;-78
2021/12/23 08:30:40;;;;;;;39.50;21.30;;;0.30;99.90;;;;;;4908141;29;20075;-78
2021/12/23 08:33:07;;;;;;;37.43;21.07;;;0.30;99.90;;;;;;4909468;29;20035;-78
2021/12/23 08:35:33;;;;;;;39.77;22.73;;;0.30;99.90;;;;;;4909579;29;20372;-78
2021/12/23 08:37:59;;;;;;;38.47;20.93;;;0.30;99.90;;;;;;4911398;29;20873;-78
2021/12/23 08:40:26;;;;;;;42.17;22.87;;;0.40;99.90;;;;;;4909882;29;20298;-78
2021/12/23 08:42:52;;;;;;;40.30;21.83;;;0.30;99.90;;;;;;4918103;28;20297;-79
2021/12/23 08:45:19;;;;;;;40.77;22.03;;;0.30;99.90;;;;;;4925496;28;20690;-78
2021/12/23 08:47:45;;;;;;;41.37;21.80;;;0.30;99.90;;;;;;4918303;28;20307;-78
2021/12/23 08:50:16;;;;;;;38.77;21.80;;;0.30;99.90;;;;;;4903721;28;20365;-78
2021/12/23 08:52:42;;;;;;;43.60;23.53;;;0.40;99.90;;;;;;4911585;29;20313;-78
2021/12/23 08:55:09;;;;;;;41.13;22.10;;;0.30;99.90;;;;;;4900637;29;20784;-78
2021/12/23 08:57:35;;;;;;;40.57;22.20;;;0.40;99.90;;;;;;4918066;29;20074;-78
2021/12/23 09:00:02;;;;;;;43.10;22.80;;;0.30;99.90;;;;;;4927535;29;20315;-78
2021/12/23 09:02:27;;;;;;;40.33;22.20;;;0.40;99.90;;;;;;4921139;29;20039;-78
2021/12/23 09:04:53;;;;;;;45.60;23.50;;;0.40;99.90;;;;;;4890242;29;20297;-78
2021/12/23 09:07:19;;;;;;;43.17;22.90;;;0.40;99.90;;;;;;4922628;29;20039;-78
2021/12/23 09:09:50;;;;;;;43.50;23.87;;;0.40;99.90;;;;;;4888354;29;20067;-79
2021/12/23 09:12:20;;;;;;;41.50;22.35;;;0.40;99.90;;;;;;4905575;29;20046;-80
2021/12/23 09:14:46;;;;;;;44.53;21.77;;;0.50;99.90;;;;;;4926999;29;20035;-78
2021/12/23 09:17:13;;;;;;;46.97;23.67;;;0.50;99.90;;;;;;4923579;29;20291;-79
2021/12/23 09:19:43;;;;;;;42.43;22.93;;;0.50;99.90;;;;;;4904499;29;20838;-78
2021/12/23 09:22:09;;;;;;;46.40;23.10;;;0.50;99.90;;;;;;4903593;29;20305;-78
2021/12/23 09:24:38;;;;;;;49.07;25.27;;;0.50;99.90;;;;;;4934204;29;20374;-79
2021/12/23 09:35:06;;;;;;;45.20;24.60;;;0.50;99.90;;;;;;4935492;29;20039;-78
2021/12/23 09:37:32;;;;;;;47.20;24.00;;;0.50;99.90;;;;;;4879968;29;20427;-78
2021/12/23 09:39:59;;;;;;;48.27;24.97;;;0.50;99.90;;;;;;4923761;29;20388;-83
2021/12/23 09:42:32;;;;;;;48.73;26.40;;;0.60;99.90;;;;;;4928753;29;20149;-83
2021/12/23 09:45:01;;;;;;;51.17;25.80;;;0.50;99.90;;;;;;4913066;29;20806;-83
2021/12/23 09:47:32;;;;;;;51.37;26.23;;;0.50;99.90;;;;;;4906402;29;20310;-83
2021/12/23 09:50:00;;;;;;;49.63;25.48;;;0.60;99.90;;;;;;4912858;29;20422;-82
2021/12/23 09:52:29;;;;;;;51.30;25.63;;;0.60;99.90;;;;;;4928628;29;20451;-83
2021/12/23 09:54:56;;;;;;;51.17;25.33;;;0.50;99.90;;;;;;4906526;29;20283;-82
2021/12/23 09:57:22;;;;;;;54.70;27.73;;;0.50;99.90;;;;;;4910136;29;20298;-83
2021/12/23 09:59:48;;;;;;;52.27;26.83;;;0.60;99.90;;;;;;4896207;29;20373;-82
2021/12/23 10:02:14;;;;;;;54.23;26.43;;;0.60;99.90;;;;;;4930557;29;20123;-84
2021/12/23 10:04:40;;;;;;;56.13;27.40;;;0.60;99.90;;;;;;4895495;29;20048;-82
2021/12/23 10:07:06;;;;;;;54.80;26.27;;;0.60;99.90;;;;;;4911866;29;20699;-83
2021/12/23 10:09:47;;;;;;;56.70;28.57;;;0.60;99.90;;;;;;4929552;29;20146;-83
2021/12/23 10:32:37;;;;;;;65.57;30.50;;;0.70;99.90;;;;;;4891972;29;20283;-82
2021/12/23 10:39:43;;;;;;;64.73;29.77;;;0.70;99.90;;;;;;4939927;28;20043;-84
2021/12/23 10:42:14;;;;;;;59.67;28.33;;;0.70;99.90;;;;;;4932906;29;20706;-84
2021/12/23 10:45:01;;;;;;;58.53;27.77;;;0.80;99.90;;;;;;4934443;29;20675;-83
2021/12/23 10:47:37;;;;;;;57.30;27.63;;;0.70;99.90;;;;;;4925951;29;20307;-83
2021/12/23 10:50:18;;;;;;;61.40;28.63;;;0.70;99.90;;;;;;4918436;29;20795;-84
2021/12/23 10:52:49;;;;;;;55.57;28.17;;;0.80;99.90;;;;;;4929384;29;20287;-84
2021/12/23 11:00:34;;;;;;;61.27;29.53;;;0.70;99.90;;;;;;4944661;29;20287;-82
2021/12/23 11:03:14;;;;;;;59.22;29.67;;;0.80;99.90;;;;;;4916917;29;20355;-80
2021/12/23 11:05:51;;;;;;;56.73;28.03;;;0.80;99.90;;;;;;4933061;29;20514;-81
2021/12/23 11:39:06;;;;;;;65.03;30.40;;;0.80;99.90;;;;;;4868000;29;20332;-83
2021/12/23 11:41:36;;;;;;;73.43;33.30;;;0.70;99.90;;;;;;4929755;29;20299;-83
2021/12/23 11:44:04;;;;;;;64.20;32.40;;;0.70;99.90;;;;;;4913467;29;20283;-82
2021/12/23 11:46:38;;;;;;;67.33;32.70;;;0.70;99.90;;;;;;4903634;29;20783;-85
2021/12/23 11:49:08;;;;;;;68.73;33.03;;;0.70;99.90;;;;;;4919049;29;20311;-84
2021/12/23 11:51:56;;;;;;;70.30;32.50;;;0.70;99.90;;;;;;4912330;29;20283;-83
2021/12/23 11:54:38;;;;;;;74.13;33.87;;;0.70;99.90;;;;;;4918642;29;20287;-84
2021/12/23 11:57:10;;;;;;;66.80;33.60;;;0.80;99.90;;;;;;4914382;29;20365;-84
2021/12/23 11:59:39;;;;;;;69.18;31.80;;;0.70;99.90;;;;;;4933699;29;20047;-85
2021/12/23 12:02:32;;;;;;;77.63;33.60;;;0.80;99.90;;;;;;4952229;29;20432;-83
2021/12/23 12:05:03;;;;;;;74.53;33.17;;;0.80;99.90;;;;;;4917123;29;20275;-83
2021/12/23 12:07:29;;;;;;;75.60;34.07;;;0.80;99.90;;;;;;4919742;29;20311;-85
2021/12/23 12:09:59;;;;;;;67.63;33.03;;;0.80;99.90;;;;;;4909860;29;20306;-84
2021/12/23 12:12:26;;;;;;;66.87;32.40;;;0.80;99.90;;;;;;4931657;29;20125;-84
2021/12/23 12:14:55;;;;;;;70.87;32.50;;;0.80;99.90;;;;;;4909301;29;20287;-84
2021/12/23 12:17:26;;;;;;;68.17;33.63;;;0.80;99.90;;;;;;4914049;29;20291;-84
2021/12/23 12:20:34;;;;;;;68.97;31.52;;;0.80;99.90;;;;;;4912996;29;20809;-85
2021/12/23 12:23:00;;;;;;;76.07;34.40;;;0.80;99.90;;;;;;4929883;29;20106;-83
2021/12/23 12:25:26;;;;;;;70.27;35.23;;;0.90;99.90;;;;;;4911206;29;20778;-84
2021/12/23 12:28:28;;;;;;;73.83;33.17;;;0.90;99.90;;;;;;4907450;29;20055;-84
2021/12/23 12:31:01;;;;;;;71.00;32.60;;;0.90;99.90;;;;;;4932666;29;20051;-84
2021/12/23 12:33:27;;;;;;;70.60;33.67;;;0.90;99.90;;;;;;4919338;29;20332;-85
2021/12/23 12:36:01;;;;;;;68.03;32.37;;;0.90;99.90;;;;;;4909730;29;20751;-83
2021/12/23 12:38:38;;;;;;;67.57;31.97;;;0.90;99.90;;;;;;4918622;29;20121;-84
2021/12/23 12:41:05;;;;;;;75.10;34.40;;;1.00;99.90;;;;;;4930499;29;20315;-85
2021/12/23 12:43:53;;;;;;;73.40;34.83;;;1.00;99.90;;;;;;4913112;29;20378;-84
2021/12/23 12:49:36;;;;;;;;;;;1.00;99.90;;;;;;4933759;29;21019;-85
2021/12/23 12:52:20;;;;;;;69.20;32.47;;;1.00;99.90;;;;;;4924844;29;19925;-85
2021/12/23 12:54:54;;;;;;;68.90;30.97;;;1.00;99.90;;;;;;4930202;29;20291;-85
2021/12/23 12:57:22;;;;;;;65.20;31.93;;;1.00;99.90;;;;;;4914441;29;20291;-83
2021/12/23 12:59:50;;;;;;;69.73;32.60;;;1.00;99.90;;;;;;4912811;29;20283;-84
2021/12/23 13:02:31;;;;;;;64.90;31.00;;;1.00;99.90;;;;;;4922705;29;20291;-87
2021/12/23 13:04:59;;;;;;;67.23;30.70;;;1.10;99.90;;;;;;4911399;29;20346;-84
2021/12/23 13:07:34;;;;;;;68.97;32.37;;;1.00;99.90;;;;;;4926310;29;20308;-85
2021/12/23 13:10:13;;;;;;;72.40;31.67;;;1.10;99.90;;;;;;4932404;29;20314;-85
2021/12/23 13:12:52;;;;;;;70.97;32.47;;;1.10;99.90;;;;;;4925122;29;20342;-87
2021/12/23 13:15:24;;;;;;;68.13;31.97;;;1.10;99.90;;;;;;4929131;29;20287;-84
2021/12/23 13:18:28;;;;;;;68.97;31.42;;;1.10;99.90;;;;;;4913344;29;20379;-86
2021/12/23 13:20:57;;;;;;;65.53;30.67;;;1.10;99.90;;;;;;4849321;29;20060;-85
2021/12/23 13:23:34;;;;;;;69.93;32.33;;;1.00;99.90;;;;;;4847591;29;20308;-85
2021/12/23 13:26:04;;;;;;;67.00;32.80;;;1.10;99.90;;;;;;4894219;29;20640;-87
2021/12/23 13:28:34;;;;;;;69.83;31.90;;;1.10;99.90;;;;;;4909687;29;20302;-86
2021/12/23 13:31:00;;;;;;;65.10;31.47;;;1.10;99.90;;;;;;4932435;29;20351;-85
2021/12/23 13:33:27;;;;;;;64.40;31.07;;;1.10;99.90;;;;;;4927023;29;20283;-83
2021/12/23 13:35:54;;;;;;;66.83;30.73;;;1.10;99.90;;;;;;4936909;29;20870;-84
2021/12/23 13:38:41;;;;;;;69.20;31.47;;;1.10;99.90;;;;;;4938097;29;20330;-84
2021/12/23 13:41:28;;;;;;;64.80;31.53;;;1.10;99.90;;;;;;4922488;29;20287;-83
2021/12/23 13:43:58;;;;;;;67.90;30.70;;;1.10;99.90;;;;;;4940735;29;20378;-82
2021/12/23 13:46:29;;;;;;;68.77;31.50;;;1.10;99.90;;;;;;4937591;29;20298;-83
2021/12/23 13:48:58;;;;;;;67.33;31.20;;;1.10;99.90;;;;;;4894164;29;20651;-83
2021/12/23 13:51:29;;;;;;;67.00;31.93;;;1.10;99.90;;;;;;4923189;29;20325;-84
2021/12/23 13:54:13;;;;;;;61.33;29.55;;;1.20;99.90;;;;;;4904531;29;20806;-83
2021/12/23 13:56:42;;;;;;;64.53;30.00;;;1.20;99.90;;;;;;4910196;29;20067;-83
2021/12/23 13:59:25;;;;;;;66.30;29.97;;;1.30;99.90;;;;;;4920589;29;20293;-84